KEOK/EOK METAR and TAF weather

Enter ICAO airport designator
Station Type Date Time Source
KEOK METAR 2020/02/16 19:55 UTC NOAA

KEOK 161955Z AUTO 12006KT 10SM CLR 04/01 A3007 RMK AO2


Station Type Date Time Source
KEOK Decoded METAR 2020/02/16 19:55 UTC NOAA

Keokuk Municipal, IA, United States (KEOK) 40-28N 091-26W
Feb 16, 2020 - 02:55 PM EST / 2020.02.16 1955 UTC
Wind: from the ESE (120 degrees) at 7 MPH (6 KT):0
Visibility: 10 mile(s):0
Sky conditions: clear
Temperature: 39 F (4 C)
Dew Point: 33 F (1 C)
Relative Humidity: 80%
Pressure (altimeter): 30.07 in. Hg (1018 hPa)
ob: KEOK 161955Z AUTO 12006KT 10SM CLR 04/01 A3007 RMK AO2
cycle: 20

Station Type Date Time Source
KEOK TAF UTC NOAA

Error!

Example: see airport list